Lens, Belgium
Current Conditions -  °F | °C
As of 9:25 AM on Friday 19 Dec 2014 (Local Time) from EBCV Reporting Station
Broken Clouds Broken Clouds  
Wind Chill: 52°   Ceiling: 1400
Heat Index: 52°   Visibility: 2mi
Dew Point: 50°   Wind: 23mph
Humidity: 94%   Direction: 230°SW
Pressure: 29.91"   Gusts: NA
Location:  50.56°N, 3.9°E
Report Text: EBCV 190825Z AUTO 23020KT 3300 FEW007/// SCT011/// BKN014/// 11/10 Q1013 YLO
Loading
Personal Weather Stations






























Interactive Weather Map New forecast layout! Learn more

10-Day Weather Forecast

Advertisements
Track Severe Weather on mobile